American Falls, ID

3:04 PM MST on December 22, 2014 (GMT -0700)
RAWS RAFT RIVER ID US | Change Station
CLOSE
Current Station
Personal Weather Station
Location: Malta, ID
Elevation: 4331 ft
Nearby Weather Stations
Active Advisory: Wind Advisory Active Notice: Record Report

Elev 4331 ft 42.55 °N, 113.26 °W | Updated 45 minutes ago

Mostly Cloudy
Mostly Cloudy
41 °F
Feels Like 31 °F
N
25
Wind Variable Wind from WNW
Gusts 40.0 mph

Today
High -- | Low -- °F
--% Chance of Precip.
Yesterday
High -- | Low -- °F
Precip. -- in
7:59 AM 5:01 PM
New Moon, 1% visible
Pressure 30.04 in
Visibility 10.0 miles
Clouds Mostly Cloudy 2500 ft
Mostly Cloudy 5000 ft
Mostly Cloudy 7500 ft
Windchill 31 °F
Dew Point 33 °F
Humidity 72%
Rainfall 0.00 in
Snow Depth Not available.
UV 1 out of 12
Pollen .10 out of 12
Air Quality Not available.
Flu Activity Not available.
METAR KPIH 222153Z COR 32010KT 10SM -RASNPL BKN025 BKN050 BKN075 03/00 A3001 RMK AO2 WSHFT 2129 RAB40SNB48GRB49E50PLB53 PRESRR SLP173 P0001 T00280000

More Conditions Fewer Conditions

Pressure 30.04 in
Visibility 10.0 miles
Clouds Mostly Cloudy 2500 ft
Mostly Cloudy 5000 ft
Mostly Cloudy 7500 ft
Windchill 31 °F
Dew Point 33 °F
Humidity 72%
Rainfall 0.00 in
Snow Depth Not available.
UV 1 out of 12
Pollen .10 out of 12
Air Quality Not available.
Flu Activity Not available.
METAR KPIH 222153Z COR 32010KT 10SM -RASNPL BKN025 BKN050 BKN075 03/00 A3001 RMK AO2 WSHFT 2129 RAB40SNB48GRB49E50PLB53 PRESRR SLP173 P0001 T00280000

More Conditions Fewer Conditions

10-Day Weather Forecast

Almanac

Astronomy

Dec. 22, 2014 Rise Set
Actual Time
Civil Twilight
Nautical Twilight
Astronomical Twilight
Moon
Length of Visible Light
Length of Day
Tomorrow will be .
, % of the Moon is Illuminated

Today's Extremes

State Highs State Lows

Community

WunderPhotos

Upload Photos

1,779,691 photos uploaded!

WunderBlogs® & News

Nearby

Air Quality

  Air Quality AQ Index Pollutant
Not available.

Snow Depth

Station Depth Elevation

Earthquake Activity

City Distance Mag. Time & Date
Minimum magnitude displayed is 2.5.

Coastal Water Temperatures

Place Temperature

Nearby Weather Stations